Time;durP1;ratioP1;P1;durP2;ratioP2;P2;SDS_P1;SDS_P2;PMS_P1;PMS_P2;Temp;Humidity;BMP_temperature;BMP_pressure;BME280_temperature;BME280_humidity;BME280_pressure;Samples;Min_cycle;Max_cycle;Signal;HPM_P1;HPM_P2
2022/01/13 00:01:19;;;;;;;1.85;1.75;;;18.00;66.90;;;;;;5020157;28;20022;-22
2022/01/13 00:03:45;;;;;;;2.08;1.98;;;18.00;66.90;;;;;;5019896;28;20029;-22
2022/01/13 00:06:11;;;;;;;2.00;1.90;;;18.00;66.90;;;;;;5016666;28;20044;-21
2022/01/13 00:08:37;;;;;;;2.10;2.00;;;18.00;66.80;;;;;;5019949;28;20117;-21
2022/01/13 00:11:02;;;;;;;1.75;1.65;;;18.00;66.90;;;;;;5019700;28;20045;-21
2022/01/13 00:13:35;;;;;;;1.70;1.60;;;17.90;66.70;;;;;;5002358;28;20545;-22
2022/01/13 00:18:39;;;;;;;2.10;2.00;;;17.80;67.10;;;;;;5000107;28;20446;-21
2022/01/13 00:24:12;;;;;;;1.70;1.60;;;17.90;66.90;;;;;;5017412;28;20030;-22
2022/01/13 00:26:38;;;;;;;1.90;1.80;;;17.90;66.90;;;;;;5017928;28;20040;-21
2022/01/13 00:29:04;;;;;;;1.67;1.58;;;17.90;66.90;;;;;;5009601;28;20046;-21
2022/01/13 00:31:33;;;;;;;1.60;1.50;;;17.90;66.90;;;;;;4999857;28;20054;-22
2022/01/13 00:34:00;;;;;;;1.90;1.80;;;17.90;66.90;;;;;;4999740;28;20022;-21
2022/01/13 00:36:27;;;;;;;1.88;1.77;;;17.90;66.70;;;;;;4998933;28;20025;-21
2022/01/13 00:38:53;;;;;;;2.00;1.90;;;17.90;66.60;;;;;;4999708;28;20026;-20
2022/01/13 00:41:19;;;;;;;2.28;2.17;;;17.90;66.60;;;;;;4999618;28;20039;-19
2022/01/13 00:43:47;;;;;;;1.80;1.70;;;17.90;66.90;;;;;;4999755;28;20030;-20
2022/01/13 00:46:24;;;;;;;1.52;1.50;;;17.90;66.90;;;;;;4999770;28;20038;-21
2022/01/13 00:48:51;;;;;;;1.52;1.50;;;17.90;66.90;;;;;;5000290;28;20026;-22
2022/01/13 00:51:17;;;;;;;1.73;1.27;;;17.80;66.90;;;;;;5019236;28;20088;-21
2022/01/13 00:53:43;;;;;;;1.67;1.58;;;17.80;66.80;;;;;;5019084;28;20040;-21
2022/01/13 00:56:08;;;;;;;1.60;1.50;;;17.90;66.80;;;;;;5019192;28;20034;-21
2022/01/13 00:58:35;;;;;;;1.63;1.52;;;17.80;66.90;;;;;;5018997;28;20093;-20
2022/01/13 01:01:01;;;;;;;1.77;1.67;;;17.80;67.00;;;;;;5019005;28;20468;-21
2022/01/13 01:03:27;;;;;;;1.60;1.50;;;17.80;66.90;;;;;;5017011;28;20022;-21
2022/01/13 01:05:52;;;;;;;1.83;1.73;;;17.80;66.80;;;;;;4999221;28;20084;-22
2022/01/13 01:08:18;;;;;;;1.92;1.83;;;17.80;66.80;;;;;;4993795;28;20015;-21
2022/01/13 01:10:46;;;;;;;1.80;1.70;;;17.80;67.00;;;;;;4987967;28;20051;-21
2022/01/13 01:13:15;;;;;;;2.00;1.90;;;17.80;67.00;;;;;;4993154;28;20538;-20
2022/01/13 01:15:44;;;;;;;1.90;1.80;;;17.80;67.10;;;;;;4999170;28;20034;-20
2022/01/13 01:23:37;;;;;;;1.50;1.50;;;17.80;66.80;;;;;;4979623;28;20023;-21
2022/01/13 01:26:18;;;;;;;1.63;1.52;;;17.80;66.90;;;;;;4993209;28;20034;-22
2022/01/13 01:28:48;;;;;;;1.83;1.73;;;17.80;66.80;;;;;;4998629;28;20034;-21
2022/01/13 01:31:14;;;;;;;1.80;1.70;;;17.80;66.80;;;;;;4998570;28;20038;-20
2022/01/13 01:33:47;;;;;;;1.73;1.63;;;17.70;67.00;;;;;;4998756;28;20653;-21
2022/01/13 01:36:13;;;;;;;1.38;1.38;;;17.70;66.90;;;;;;4999054;28;20029;-21
2022/01/13 01:38:42;;;;;;;1.73;1.63;;;17.70;66.90;;;;;;4998699;28;20026;-20
2022/01/13 01:41:08;;;;;;;1.52;1.48;;;17.70;66.90;;;;;;4998234;28;20037;-19
2022/01/13 01:43:33;;;;;;;1.58;1.50;;;17.80;66.90;;;;;;4998560;28;20488;-21
2022/01/13 01:45:59;;;;;;;1.45;1.45;;;17.80;66.90;;;;;;4999014;28;20093;-21
2022/01/13 01:48:28;;;;;;;1.20;1.20;;;17.70;67.00;;;;;;4998346;28;20038;-21
2022/01/13 01:50:58;;;;;;;1.20;1.20;;;17.70;67.00;;;;;;4998307;28;20038;-21
2022/01/13 01:53:24;;;;;;;1.23;1.23;;;17.70;67.00;;;;;;4998515;28;20027;-21
2022/01/13 01:55:49;;;;;;;1.13;1.13;;;17.80;66.90;;;;;;4998698;28;20434;-20
2022/01/13 01:58:15;;;;;;;1.20;1.20;;;17.80;66.80;;;;;;4997233;28;20014;-20
2022/01/13 02:00:41;;;;;;;1.77;1.08;;;17.80;66.70;;;;;;4996689;28;20061;-21
2022/01/13 02:03:06;;;;;;;1.23;1.23;;;17.70;66.80;;;;;;4998161;28;20029;-21
2022/01/13 02:05:32;;;;;;;1.30;1.20;;;17.70;66.90;;;;;;4998397;28;20169;-20
2022/01/13 02:07:57;;;;;;;0.90;0.90;;;17.70;66.90;;;;;;4998307;28;20089;-19
2022/01/13 02:10:23;;;;;;;1.30;1.30;;;17.70;66.90;;;;;;4997784;28;20116;-21
2022/01/13 02:12:52;;;;;;;1.20;1.20;;;17.70;66.90;;;;;;4998052;28;20026;-21
2022/01/13 02:15:30;;;;;;;0.93;0.93;;;17.70;67.00;;;;;;4997733;28;20066;-22
2022/01/13 02:17:56;;;;;;;0.85;0.85;;;17.70;67.00;;;;;;4997836;28;20049;-21
2022/01/13 02:20:22;;;;;;;1.00;1.00;;;17.70;66.90;;;;;;4997825;28;20833;-21
2022/01/13 02:22:47;;;;;;;1.00;1.00;;;17.70;66.90;;;;;;4997954;28;20015;-19
2022/01/13 02:25:14;;;;;;;0.85;0.85;;;17.60;67.20;;;;;;4997963;28;20397;-21
2022/01/13 02:27:40;;;;;;;1.63;1.52;;;17.60;67.10;;;;;;4997856;28;20026;-21
2022/01/13 02:30:06;;;;;;;1.17;1.17;;;17.60;67.20;;;;;;4997297;28;20125;-21
2022/01/13 02:32:31;;;;;;;0.90;0.90;;;17.60;67.30;;;;;;4997481;28;20081;-20
2022/01/13 02:34:57;;;;;;;1.02;1.02;;;17.60;67.10;;;;;;4997356;28;20406;-19
2022/01/13 02:37:22;;;;;;;1.00;1.00;;;17.60;67.10;;;;;;4997232;28;20029;-21
2022/01/13 02:39:48;;;;;;;1.02;1.02;;;17.60;67.10;;;;;;4997332;28;20451;-22
2022/01/13 02:42:14;;;;;;;1.13;1.10;;;17.60;67.00;;;;;;4997508;28;20019;-19
2022/01/13 02:44:49;;;;;;;1.00;1.00;;;17.60;67.20;;;;;;4997770;28;20438;-20
2022/01/13 02:47:33;;;;;;;0.85;0.85;;;17.60;67.20;;;;;;4978167;28;20098;-23
2022/01/13 02:49:59;;;;;;;1.10;1.10;;;17.60;67.30;;;;;;4986386;28;20097;-22
2022/01/13 02:52:25;;;;;;;1.00;1.00;;;17.60;67.00;;;;;;4997706;28;20038;-22
2022/01/13 02:54:50;;;;;;;0.82;0.82;;;17.60;67.00;;;;;;4997469;28;20041;-22
2022/01/13 02:57:16;;;;;;;1.00;1.00;;;17.50;67.10;;;;;;4997315;28;20562;-20
2022/01/13 02:59:42;;;;;;;1.20;1.20;;;17.60;67.10;;;;;;4995839;28;20487;-21
2022/01/13 03:02:07;;;;;;;0.80;0.80;;;17.60;67.00;;;;;;4997050;28;20040;-22
2022/01/13 03:04:33;;;;;;;1.08;1.08;;;17.50;67.20;;;;;;4997146;28;20077;-22
2022/01/13 03:06:59;;;;;;;1.15;1.10;;;17.50;67.20;;;;;;4996743;28;20038;-21
2022/01/13 03:09:24;;;;;;;0.90;0.90;;;17.60;67.20;;;;;;4996941;28;20058;-21
2022/01/13 03:11:50;;;;;;;1.20;1.20;;;17.60;67.00;;;;;;4997140;28;20387;-22
2022/01/13 03:14:16;;;;;;;0.90;0.90;;;17.60;67.00;;;;;;4997245;28;20062;-22
2022/01/13 03:16:42;;;;;;;1.00;1.00;;;17.60;67.20;;;;;;4997083;28;20025;-21
2022/01/13 03:19:08;;;;;;;1.20;1.20;;;17.60;67.00;;;;;;4996697;28;20531;-23
2022/01/13 03:21:34;;;;;;;0.77;0.77;;;17.60;66.90;;;;;;4997337;28;20534;-23
2022/01/13 03:24:00;;;;;;;1.00;1.00;;;17.60;66.90;;;;;;4997016;28;20034;-21
2022/01/13 03:26:26;;;;;;;1.48;1.38;;;17.60;66.90;;;;;;4997207;28;20197;-21
2022/01/13 03:28:54;;;;;;;1.13;1.13;;;17.60;66.90;;;;;;4997166;28;20148;-21
2022/01/13 03:31:21;;;;;;;0.82;0.82;;;17.60;67.00;;;;;;4995577;28;20117;-20
2022/01/13 03:33:47;;;;;;;0.93;0.93;;;17.60;66.90;;;;;;4995678;28;20041;-22
2022/01/13 03:36:13;;;;;;;0.90;0.90;;;17.60;66.80;;;;;;4996930;28;20026;-20
2022/01/13 03:38:39;;;;;;;0.80;0.80;;;17.60;66.90;;;;;;4988850;28;20467;-21
2022/01/13 03:41:04;;;;;;;1.42;0.90;;;17.60;67.00;;;;;;4993761;28;20076;-19
2022/01/13 03:43:30;;;;;;;0.80;0.80;;;17.60;66.90;;;;;;4996468;28;20030;-20
2022/01/13 03:45:56;;;;;;;1.00;1.00;;;17.60;66.90;;;;;;4996527;28;20103;-22
2022/01/13 03:48:21;;;;;;;0.98;0.90;;;17.60;66.90;;;;;;4990401;28;20058;-21
2022/01/13 03:50:47;;;;;;;1.25;0.98;;;17.60;66.90;;;;;;4993001;28;20080;-21
2022/01/13 03:53:28;;;;;;;0.90;0.90;;;17.50;66.90;;;;;;4994818;28;20037;-22
2022/01/13 03:56:25;;;;;;;0.90;0.90;;;17.50;66.80;;;;;;4996233;28;20034;-22
2022/01/13 03:58:59;;;;;;;0.80;0.80;;;17.60;66.80;;;;;;4996381;28;20022;-19
2022/01/13 04:01:43;;;;;;;1.10;1.10;;;17.60;66.80;;;;;;4995644;28;20033;-20
2022/01/13 04:04:09;;;;;;;0.98;0.98;;;17.60;66.90;;;;;;4996169;28;20027;-19
2022/01/13 04:06:37;;;;;;;0.90;0.90;;;17.60;66.80;;;;;;4990512;28;20034;-19
2022/01/13 04:09:08;;;;;;;0.90;0.90;;;17.60;66.70;;;;;;4987067;28;20452;-20
2022/01/13 04:11:33;;;;;;;1.00;0.90;;;17.60;66.70;;;;;;4989010;28;20030;-21
2022/01/13 04:14:05;;;;;;;1.20;1.20;;;17.60;66.70;;;;;;4999727;28;20029;-21
2022/01/13 04:16:36;;;;;;;1.00;1.00;;;17.60;66.70;;;;;;4999737;28;20046;-20
2022/01/13 04:19:05;;;;;;;0.82;0.82;;;17.60;66.90;;;;;;4999293;28;20034;-22
2022/01/13 04:21:34;;;;;;;1.17;0.98;;;17.60;66.80;;;;;;4999049;28;20660;-20
2022/01/13 04:24:00;;;;;;;1.00;1.00;;;17.60;66.80;;;;;;4998902;28;20045;-21
2022/01/13 04:26:30;;;;;;;0.95;0.95;;;17.60;66.90;;;;;;5013908;28;20030;-20
2022/01/13 04:29:05;;;;;;;1.48;1.38;;;17.50;67.00;;;;;;4994458;28;20045;-20
2022/01/13 04:31:31;;;;;;;0.80;0.80;;;17.60;66.90;;;;;;4982860;28;20050;-22
2022/01/13 04:33:56;;;;;;;1.00;0.90;;;17.60;66.90;;;;;;4999450;28;20029;-21
2022/01/13 04:36:22;;;;;;;1.00;1.00;;;17.60;67.00;;;;;;4999605;28;20030;-22
2022/01/13 04:38:47;;;;;;;0.90;0.90;;;17.50;67.00;;;;;;4999500;28;20095;-22
2022/01/13 04:41:22;;;;;;;0.80;0.80;;;17.50;67.10;;;;;;4998399;28;20110;-19
2022/01/13 04:43:47;;;;;;;0.80;0.80;;;17.50;67.00;;;;;;4992552;28;20026;-21
2022/01/13 04:46:13;;;;;;;0.88;0.88;;;17.50;66.90;;;;;;4999101;28;20553;-22
2022/01/13 04:48:38;;;;;;;1.05;0.88;;;17.50;66.90;;;;;;4998897;28;20026;-21
2022/01/13 04:51:04;;;;;;;0.80;0.80;;;17.50;66.90;;;;;;4983283;28;20043;-21
2022/01/13 04:53:29;;;;;;;0.73;0.73;;;17.50;67.00;;;;;;4997369;28;20064;-22
2022/01/13 04:55:58;;;;;;;0.70;0.70;;;17.50;66.90;;;;;;4998845;28;20025;-21
2022/01/13 04:58:23;;;;;;;0.95;0.95;;;17.50;66.80;;;;;;4998779;28;20049;-19
2022/01/13 05:00:49;;;;;;;0.80;0.80;;;17.50;66.70;;;;;;4997318;28;20018;-20
2022/01/13 05:03:15;;;;;;;0.93;0.93;;;17.50;66.90;;;;;;4977771;28;20451;-20
2022/01/13 05:05:41;;;;;;;0.95;0.95;;;17.60;66.90;;;;;;4979694;28;20027;-22
2022/01/13 05:08:06;;;;;;;1.00;1.00;;;17.50;66.90;;;;;;4979594;28;20400;-21
2022/01/13 05:10:32;;;;;;;1.10;1.10;;;17.50;66.90;;;;;;4980444;28;20053;-23
2022/01/13 05:12:58;;;;;;;5.15;0.95;;;17.50;67.00;;;;;;4992698;28;20045;-22
2022/01/13 05:15:26;;;;;;;0.90;0.90;;;17.40;67.10;;;;;;4998217;28;20097;-21
2022/01/13 05:20:28;;;;;;;0.90;0.90;;;17.50;67.10;;;;;;4998902;28;20030;-22
2022/01/13 05:22:54;;;;;;;0.85;0.80;;;17.50;67.10;;;;;;4978527;28;20156;-21
2022/01/13 05:25:20;;;;;;;0.60;0.60;;;17.40;67.10;;;;;;4979933;28;20063;-21
2022/01/13 05:27:46;;;;;;;0.98;0.98;;;17.50;67.10;;;;;;4998333;28;20125;-20
2022/01/13 05:30:15;;;;;;;0.80;0.80;;;17.50;67.10;;;;;;4998648;28;20026;-22
2022/01/13 05:32:40;;;;;;;0.60;0.60;;;17.50;66.90;;;;;;4998135;28;20077;-22
2022/01/13 05:35:06;;;;;;;0.90;0.90;;;17.50;66.80;;;;;;4998053;28;20031;-21
2022/01/13 05:37:32;;;;;;;0.98;0.70;;;17.50;66.80;;;;;;4997822;28;20045;-19
2022/01/13 05:39:58;;;;;;;0.60;0.60;;;17.50;66.80;;;;;;4998481;28;20022;-21
2022/01/13 05:42:23;;;;;;;0.70;0.70;;;17.40;66.90;;;;;;4998035;28;20022;-22
2022/01/13 05:44:49;;;;;;;0.82;0.82;;;17.40;66.90;;;;;;4998151;28;20031;-21
2022/01/13 05:47:15;;;;;;;0.85;0.85;;;17.40;66.90;;;;;;4998284;28;20038;-22
2022/01/13 05:49:41;;;;;;;0.70;0.70;;;17.40;66.90;;;;;;4992666;28;20109;-22
2022/01/13 05:52:08;;;;;;;0.90;0.90;;;17.40;66.90;;;;;;4997941;28;20030;-21
2022/01/13 05:54:33;;;;;;;0.63;0.63;;;17.40;66.90;;;;;;4997634;28;20117;-22
2022/01/13 05:56:59;;;;;;;0.68;0.68;;;17.40;67.10;;;;;;4997742;28;20108;-20
2022/01/13 05:59:25;;;;;;;0.43;0.43;;;17.40;67.00;;;;;;4997338;28;20105;-20
2022/01/13 06:01:51;;;;;;;0.85;0.85;;;17.40;66.90;;;;;;4997921;28;20453;-20
2022/01/13 06:04:16;;;;;;;0.70;0.70;;;17.40;66.90;;;;;;4997218;28;20029;-19
2022/01/13 06:06:42;;;;;;;0.70;0.63;;;17.40;66.90;;;;;;4998093;28;20676;-21
2022/01/13 06:09:07;;;;;;;0.55;0.55;;;17.30;67.10;;;;;;4997214;28;20089;-19
2022/01/13 06:12:20;;;;;;;0.70;0.70;;;17.30;67.20;;;;;;4996863;28;20395;-20
2022/01/13 06:14:19;;;;;;;0.47;0.47;;;17.40;67.40;;;;;;4999937;28;20099;-21
2022/01/13 06:16:44;;;;;;;0.88;0.88;;;17.30;67.60;;;;;;4997620;28;20444;-22
2022/01/13 06:19:10;;;;;;;0.70;0.70;;;17.40;68.00;;;;;;4997409;28;20072;-21
2022/01/13 06:21:36;;;;;;;0.82;0.82;;;17.50;68.20;;;;;;4997243;28;20030;-20
2022/01/13 06:24:01;;;;;;;0.80;0.80;;;17.40;68.60;;;;;;4978416;28;20066;-21
2022/01/13 06:26:27;;;;;;;0.90;0.90;;;17.40;68.90;;;;;;4978965;28;20030;-21
2022/01/13 06:28:53;;;;;;;1.83;1.00;;;17.40;68.80;;;;;;4978214;28;20030;-20
2022/01/13 06:31:18;;;;;;;1.90;0.88;;;17.40;68.90;;;;;;4988892;28;20026;-21
2022/01/13 06:33:44;;;;;;;1.00;1.00;;;17.40;69.40;;;;;;4994128;28;20049;-19
2022/01/13 06:36:09;;;;;;;21.42;14.05;;;17.50;69.60;;;;;;4978043;28;20086;-20
2022/01/13 06:38:36;;;;;;;43.75;25.25;;;17.50;69.30;;;;;;4989806;28;20023;-21
2022/01/13 06:41:01;;;;;;;55.50;31.63;;;17.50;69.00;;;;;;4991060;28;20045;-19
2022/01/13 06:43:28;;;;;;;55.40;31.52;;;17.50;69.50;;;;;;4990481;28;20050;-19
2022/01/13 06:45:53;;;;;;;56.05;31.08;;;17.60;69.00;;;;;;4992761;28;20050;-20
2022/01/13 06:48:19;;;;;;;52.35;30.95;;;17.60;69.00;;;;;;4986567;28;20499;-21
2022/01/13 06:50:44;;;;;;;54.95;29.73;;;17.50;69.10;;;;;;4993999;28;20046;-20
2022/01/13 06:53:10;;;;;;;49.55;28.35;;;17.50;69.50;;;;;;5002976;28;20037;-20
2022/01/13 06:55:36;;;;;;;48.28;26.33;;;17.40;69.60;;;;;;4994739;28;20043;-20
2022/01/13 06:58:01;;;;;;;52.05;27.63;;;17.40;69.50;;;;;;4995119;28;20034;-19
2022/01/13 07:00:27;;;;;;;43.17;25.58;;;17.40;69.50;;;;;;4995977;28;20050;-22
2022/01/13 07:02:55;;;;;;;48.78;26.60;;;17.40;69.40;;;;;;4995733;28;20078;-20
2022/01/13 07:05:21;;;;;;;49.25;26.88;;;17.40;69.40;;;;;;4994836;28;20042;-21
2022/01/13 07:07:46;;;;;;;46.35;26.98;;;17.40;69.50;;;;;;4994907;28;20407;-21
2022/01/13 07:10:12;;;;;;;43.10;22.90;;;17.50;69.40;;;;;;4995057;28;20055;-21
2022/01/13 07:12:38;;;;;;;41.50;22.88;;;17.50;68.90;;;;;;4994185;28;20077;-19
2022/01/13 07:15:05;;;;;;;41.95;23.90;;;17.50;68.90;;;;;;4992378;28;20043;-21
2022/01/13 07:17:31;;;;;;;39.72;22.40;;;17.50;68.70;;;;;;4995451;28;20050;-21
2022/01/13 07:19:56;;;;;;;37.95;21.88;;;17.60;68.70;;;;;;4994887;28;20051;-20
2022/01/13 07:22:22;;;;;;;38.25;22.02;;;17.60;68.30;;;;;;4994428;28;20050;-21
2022/01/13 07:24:48;;;;;;;36.20;20.88;;;17.60;68.30;;;;;;4997470;28;20573;-20
2022/01/13 07:27:13;;;;;;;36.45;21.17;;;17.60;68.20;;;;;;4995985;28;20046;-19
2022/01/13 07:29:39;;;;;;;34.53;20.05;;;17.60;68.10;;;;;;4995529;28;20039;-20
2022/01/13 07:32:06;;;;;;;37.40;21.23;;;17.60;67.90;;;;;;4994974;28;20061;-19
2022/01/13 07:34:32;;;;;;;39.22;19.25;;;17.60;68.00;;;;;;4994776;28;20047;-22
2022/01/13 07:36:57;;;;;;;30.92;18.90;;;17.60;67.80;;;;;;4995340;28;20046;-20
2022/01/13 07:39:23;;;;;;;33.83;18.48;;;17.60;67.80;;;;;;5005277;28;20455;-21
2022/01/13 07:41:49;;;;;;;37.03;19.15;;;17.60;67.80;;;;;;4988509;28;20062;-21
2022/01/13 07:44:16;;;;;;;33.60;19.33;;;17.70;67.50;;;;;;4975097;28;20455;-21
2022/01/13 07:46:41;;;;;;;30.30;18.65;;;17.70;67.60;;;;;;4981466;28;20042;-19
2022/01/13 07:49:07;;;;;;;34.38;17.75;;;17.70;67.40;;;;;;4998418;28;20038;-19
2022/01/13 07:51:33;;;;;;;30.67;18.10;;;17.70;67.50;;;;;;4999168;28;20105;-19
2022/01/13 07:53:58;;;;;;;30.58;18.05;;;17.60;67.90;;;;;;4998439;28;20090;-19
2022/01/13 07:56:24;;;;;;;29.75;18.15;;;17.60;67.50;;;;;;4997398;28;20442;-21
2022/01/13 07:58:49;;;;;;;31.63;17.48;;;17.70;67.50;;;;;;4999190;28;20042;-21
2022/01/13 08:01:15;;;;;;;33.13;17.60;;;17.70;67.50;;;;;;4997184;28;20042;-18
2022/01/13 08:03:41;;;;;;;25.80;17.70;;;17.60;67.50;;;;;;4999229;28;20377;-20
2022/01/13 08:06:06;;;;;;;25.08;16.02;;;17.70;67.30;;;;;;4998766;28;20042;-18
2022/01/13 08:08:32;;;;;;;25.33;16.27;;;17.60;67.30;;;;;;4999148;28;20046;-19
2022/01/13 08:10:58;;;;;;;29.63;17.90;;;17.70;67.50;;;;;;4999146;28;20418;-19
2022/01/13 08:13:24;;;;;;;28.50;16.48;;;17.60;67.30;;;;;;4998419;28;20053;-20
2022/01/13 08:15:52;;;;;;;35.15;22.02;;;17.60;67.30;;;;;;4998586;28;20050;-19
2022/01/13 08:21:02;;;;;;;48.70;28.50;;;17.70;67.50;;;;;;4998673;28;20054;-16
2022/01/13 08:23:28;;;;;;;45.75;26.23;;;17.60;67.30;;;;;;4999151;28;20038;-20
2022/01/13 08:25:53;;;;;;;45.67;26.60;;;17.60;67.30;;;;;;4998697;28;20069;-21
2022/01/13 08:28:20;;;;;;;45.10;25.13;;;17.70;67.10;;;;;;4995778;28;20046;-24
2022/01/13 08:30:46;;;;;;;47.08;26.38;;;17.60;67.10;;;;;;4985304;28;20093;-19
2022/01/13 08:33:11;;;;;;;43.13;26.75;;;17.60;67.00;;;;;;4995470;28;20023;-20
2022/01/13 08:35:43;;;;;;;40.08;25.90;;;17.60;67.20;;;;;;4998357;28;20564;-25
2022/01/13 08:38:16;;;;;;;38.28;24.25;;;17.60;67.10;;;;;;4997933;28;20049;-21
2022/01/13 08:40:42;;;;;;;38.13;24.55;;;17.70;67.10;;;;;;5017802;28;20046;-22
2022/01/13 08:43:07;;;;;;;45.50;25.58;;;17.70;66.90;;;;;;5008638;28;20043;-21
2022/01/13 08:45:33;;;;;;;40.97;25.85;;;17.70;66.90;;;;;;4998294;28;20043;-21
2022/01/13 08:47:59;;;;;;;40.10;24.58;;;17.70;67.00;;;;;;4998099;28;20093;-21
2022/01/13 08:50:24;;;;;;;39.25;25.00;;;17.60;66.90;;;;;;5002736;28;20128;-20
2022/01/13 08:52:50;;;;;;;38.60;25.30;;;17.60;66.90;;;;;;5017984;28;20559;-21
2022/01/13 08:55:16;;;;;;;40.63;26.33;;;17.60;67.00;;;;;;5017120;28;20054;-20
2022/01/13 08:57:41;;;;;;;40.85;24.50;;;17.60;66.80;;;;;;5015963;28;20065;-18
2022/01/13 09:00:07;;;;;;;38.55;24.50;;;17.60;66.80;;;;;;5017709;28;20152;-23
2022/01/13 09:02:33;;;;;;;35.40;23.02;;;17.70;66.80;;;;;;5016539;28;20070;-21
2022/01/13 09:05:03;;;;;;;37.95;24.70;;;17.70;66.80;;;;;;5018079;28;20042;-21
2022/01/13 09:07:29;;;;;;;36.00;21.63;;;17.60;66.90;;;;;;5017123;28;20046;-21
2022/01/13 09:09:56;;;;;;;39.25;24.08;;;17.60;66.70;;;;;;5018609;28;20053;-19
2022/01/13 09:12:21;;;;;;;35.00;23.15;;;17.70;66.60;;;;;;5017466;28;20562;-24
2022/01/13 09:14:47;;;;;;;35.90;23.27;;;17.70;66.90;;;;;;5017382;28;20121;-22
2022/01/13 09:17:20;;;;;;;40.53;23.65;;;17.60;67.10;;;;;;5018559;28;20022;-22
2022/01/13 09:19:46;;;;;;;35.97;23.67;;;17.50;66.80;;;;;;5017043;28;20402;-21
2022/01/13 09:22:12;;;;;;;34.05;22.40;;;17.60;66.80;;;;;;5017483;28;20038;-26
2022/01/13 09:24:37;;;;;;;33.97;21.83;;;17.60;66.70;;;;;;5017050;28;20050;-25
2022/01/13 09:27:03;;;;;;;32.55;22.23;;;17.60;66.60;;;;;;5017774;28;20406;-20
2022/01/13 09:29:29;;;;;;;39.85;23.85;;;17.60;66.50;;;;;;5015291;28;20066;-21
2022/01/13 09:31:55;;;;;;;35.05;22.00;;;17.70;66.30;;;;;;5017224;28;20506;-21
2022/01/13 09:34:21;;;;;;;32.05;20.73;;;17.60;67.30;;;;;;5015781;28;20146;-24
2022/01/13 09:36:46;;;;;;;32.42;21.40;;;17.60;66.50;;;;;;5015512;28;20078;-20
2022/01/13 09:39:12;;;;;;;34.05;21.63;;;17.60;66.40;;;;;;5015991;28;20066;-20
2022/01/13 09:41:42;;;;;;;32.30;20.27;;;17.50;66.60;;;;;;5014905;28;20102;-21
2022/01/13 09:44:07;;;;;;;33.55;21.55;;;17.50;66.70;;;;;;5011079;28;20148;-26
2022/01/13 09:46:33;;;;;;;41.95;22.80;;;17.60;66.80;;;;;;5009804;28;20046;-21
2022/01/13 09:49:02;;;;;;;40.72;25.77;;;17.60;66.70;;;;;;4997484;28;20034;-21
2022/01/13 09:51:28;;;;;;;43.53;23.77;;;17.60;66.90;;;;;;4997419;28;20052;-21
2022/01/13 09:53:54;;;;;;;44.92;26.08;;;17.60;66.50;;;;;;4996950;28;20130;-20
2022/01/13 09:56:20;;;;;;;42.90;24.05;;;17.60;66.80;;;;;;4998491;28;20022;-20
2022/01/13 09:58:45;;;;;;;46.45;26.15;;;17.60;66.90;;;;;;4996624;28;20054;-20
2022/01/13 10:01:12;;;;;;;44.72;25.52;;;17.60;66.60;;;;;;4998107;28;20022;-21
2022/01/13 10:03:37;;;;;;;38.22;23.88;;;17.60;66.30;;;;;;4998189;28;20490;-20
2022/01/13 10:06:17;;;;;;;39.75;23.95;;;17.60;65.90;;;;;;4998169;28;20054;-23
2022/01/13 10:08:47;;;;;;;43.60;25.55;;;17.70;65.90;;;;;;4998114;28;20023;-20
2022/01/13 10:11:29;;;;;;;55.10;31.25;;;17.70;65.90;;;;;;4997874;28;20102;-19
2022/01/13 10:16:23;;;;;;;56.08;33.70;;;17.60;66.10;;;;;;5001355;28;20081;-20
2022/01/13 10:17:07;;;;;;;62.65;36.78;;;17.70;65.80;;;;;;4995353;28;20045;-22
2022/01/13 10:19:46;;;;;;;61.50;35.78;;;17.60;66.00;;;;;;4995359;28;20137;-22
2022/01/13 10:22:12;;;;;;;62.17;35.95;;;17.70;66.00;;;;;;5008373;28;20050;-22
2022/01/13 10:24:45;;;;;;;57.58;34.40;;;17.70;65.90;;;;;;5016132;28;20383;-21
2022/01/13 10:27:16;;;;;;;53.13;32.75;;;17.70;65.80;;;;;;5015500;28;20042;-20
2022/01/13 10:29:46;;;;;;;55.92;32.20;;;17.70;65.70;;;;;;5016483;28;20045;-21
2022/01/13 10:32:16;;;;;;;56.85;34.55;;;17.70;65.70;;;;;;4995997;28;20384;-21
2022/01/13 10:34:44;;;;;;;56.80;33.90;;;17.70;65.80;;;;;;4996269;28;20105;-21
2022/01/13 10:37:19;;;;;;;54.53;32.83;;;17.80;65.90;;;;;;4995885;28;20046;-21
2022/01/13 10:39:59;;;;;;;50.78;30.65;;;17.80;65.80;;;;;;4995826;28;20050;-20
2022/01/13 10:43:19;;;;;;;49.83;29.98;;;17.80;65.70;;;;;;4996462;28;20495;-21
2022/01/13 10:45:28;;;;;;;52.20;31.48;;;17.80;65.80;;;;;;5018639;28;20077;-23
2022/01/13 10:47:56;;;;;;;51.58;30.15;;;17.80;65.60;;;;;;5015426;28;20510;-24
2022/01/13 10:50:22;;;;;;;53.47;32.70;;;17.80;65.70;;;;;;5014855;28;20133;-22
2022/01/13 10:52:49;;;;;;;50.60;30.50;;;17.80;65.90;;;;;;5014629;28;20050;-22
2022/01/13 10:55:17;;;;;;;48.28;28.38;;;17.80;65.70;;;;;;5015551;28;20049;-20
2022/01/13 10:57:43;;;;;;;48.47;29.83;;;17.90;65.50;;;;;;5014644;28;20117;-20
2022/01/13 11:00:22;;;;;;;48.03;29.30;;;17.90;65.20;;;;;;5014684;28;20049;-20
2022/01/13 11:02:58;;;;;;;46.38;28.10;;;17.90;65.30;;;;;;5005633;28;20050;-21
2022/01/13 11:05:24;;;;;;;44.58;25.63;;;17.90;65.30;;;;;;4976547;28;20050;-22
2022/01/13 11:07:50;;;;;;;38.08;24.20;;;17.90;65.30;;;;;;4976270;28;20122;-23
2022/01/13 11:10:15;;;;;;;39.58;25.00;;;17.90;65.30;;;;;;4993942;28;20077;-21
2022/01/13 11:12:44;;;;;;;35.63;21.67;;;17.90;65.10;;;;;;4993209;28;20046;-22
2022/01/13 11:15:15;;;;;;;36.15;21.20;;;17.90;65.00;;;;;;5001152;28;20514;-19
2022/01/13 11:17:44;;;;;;;33.05;20.88;;;17.90;65.10;;;;;;4979704;28;20053;-20
2022/01/13 11:20:20;;;;;;;36.13;21.25;;;17.90;65.20;;;;;;4995010;28;20129;-22
2022/01/13 11:22:47;;;;;;;33.33;21.25;;;17.90;65.20;;;;;;5000162;28;20049;-23
2022/01/13 11:25:14;;;;;;;31.38;20.35;;;18.00;64.90;;;;;;5000375;28;20061;-20
2022/01/13 11:27:40;;;;;;;29.35;20.02;;;18.00;64.90;;;;;;4998123;28;20427;-21
2022/01/13 11:30:08;;;;;;;32.75;20.85;;;18.00;65.10;;;;;;5001106;28;20053;-22
2022/01/13 11:32:33;;;;;;;31.20;20.60;;;18.00;64.90;;;;;;5000264;28;20045;-20
2022/01/13 11:34:59;;;;;;;33.30;19.77;;;18.00;65.10;;;;;;4999475;28;20391;-20
2022/01/13 11:37:26;;;;;;;29.25;18.70;;;18.10;65.70;;;;;;5001345;28;20529;-22
2022/01/13 11:39:52;;;;;;;26.63;17.55;;;18.10;65.30;;;;;;4998313;28;20046;-22
2022/01/13 11:42:18;;;;;;;27.17;18.05;;;18.10;65.60;;;;;;4998966;28;20579;-22
2022/01/13 11:44:44;;;;;;;26.25;17.77;;;18.10;65.20;;;;;;5000641;28;20100;-22
2022/01/13 11:47:17;;;;;;;29.02;17.70;;;18.10;65.40;;;;;;4999389;28;20045;-20
2022/01/13 11:49:59;;;;;;;27.83;18.07;;;18.10;65.30;;;;;;4999958;28;20050;-20
2022/01/13 11:52:50;;;;;;;27.67;18.48;;;18.20;65.60;;;;;;4744532;28;10000855;-20
2022/01/13 11:55:25;;;;;;;28.98;18.58;;;18.20;65.40;;;;;;4996544;28;20239;-22
2022/01/13 11:57:50;;;;;;;27.23;17.90;;;18.20;65.30;;;;;;4993471;28;20061;-20
2022/01/13 12:00:16;;;;;;;25.05;18.05;;;18.20;65.20;;;;;;4998063;28;20517;-23
2022/01/13 12:02:43;;;;;;;28.27;18.40;;;18.20;65.30;;;;;;4997289;28;20538;-22
2022/01/13 12:05:14;;;;;;;24.80;17.40;;;18.30;65.40;;;;;;4994007;28;20062;-21
2022/01/13 12:07:47;;;;;;;25.88;17.38;;;18.30;65.40;;;;;;4994102;28;20600;-22
2022/01/13 12:10:34;;;;;;;24.88;17.73;;;18.30;65.10;;;;;;4996385;28;20068;-21
2022/01/13 12:12:59;;;;;;;23.60;16.85;;;18.30;65.10;;;;;;5004199;28;20046;-20
2022/01/13 12:15:26;;;;;;;27.25;16.92;;;18.30;65.30;;;;;;4997947;28;20530;-22
2022/01/13 12:18:02;;;;;;;24.75;17.15;;;18.30;65.10;;;;;;4993793;28;20080;-22
2022/01/13 12:20:57;;;;;;;20.88;15.88;;;18.40;65.20;;;;;;4993793;28;20058;-20
2022/01/13 12:23:41;;;;;;;21.63;15.45;;;18.40;65.20;;;;;;4992831;28;20133;-21
2022/01/13 12:26:32;;;;;;;20.17;15.23;;;18.40;65.00;;;;;;4996667;28;20052;-22
2022/01/13 12:29:23;;;;;;;20.45;14.48;;;18.40;65.20;;;;;;4994200;28;20399;-20
2022/01/13 12:31:55;;;;;;;18.55;14.63;;;18.40;65.10;;;;;;4991004;28;20042;-22
2022/01/13 12:34:33;;;;;;;21.02;15.02;;;18.40;65.00;;;;;;4987866;28;20050;-22
2022/01/13 12:37:11;;;;;;;21.45;14.40;;;18.40;65.10;;;;;;4986047;28;20069;-21
2022/01/13 12:39:40;;;;;;;20.98;14.95;;;18.40;65.30;;;;;;5001158;28;20146;-19
2022/01/13 12:42:16;;;;;;;24.95;15.00;;;18.40;65.20;;;;;;4994932;28;20137;-21
2022/01/13 12:47:26;;;;;;;23.42;16.35;;;18.50;65.10;;;;;;4993403;28;20053;-22
2022/01/13 12:49:52;;;;;;;20.52;14.13;;;18.50;65.10;;;;;;4993547;28;20137;-20
2022/01/13 12:52:21;;;;;;;21.30;16.90;;;18.50;65.10;;;;;;4994281;28;20046;-22
2022/01/13 12:54:47;;;;;;;24.50;17.17;;;18.50;65.00;;;;;;4984008;28;20064;-22
2022/01/13 12:57:13;;;;;;;22.05;16.02;;;18.50;65.00;;;;;;4991421;28;20054;-21
2022/01/13 12:59:39;;;;;;;22.42;15.38;;;18.50;64.90;;;;;;4994738;28;20038;-21